sensor_id;sensor_type;location;lat;lon;timestamp;P1;durP1;ratioP1;P2;durP2;ratioP2
43857;SDS011;29507;51.284;5.758;2022-08-21T00:00:10;12.27;;;7.55;;
43857;SDS011;29507;51.284;5.758;2022-08-21T00:02:44;11.45;;;7.28;;
43857;SDS011;29507;51.284;5.758;2022-08-21T00:05:12;14.75;;;7.80;;
43857;SDS011;29507;51.284;5.758;2022-08-21T00:07:38;10.93;;;6.75;;
43857;SDS011;29507;51.284;5.758;2022-08-21T00:10:04;10.68;;;6.70;;
43857;SDS011;29507;51.284;5.758;2022-08-21T00:12:30;10.50;;;7.07;;
43857;SDS011;29507;51.284;5.758;2022-08-21T00:14:56;11.07;;;6.93;;
43857;SDS011;29507;51.284;5.758;2022-08-21T00:17:22;12.23;;;7.53;;
43857;SDS011;29507;51.284;5.758;2022-08-21T00:19:47;9.10;;;6.43;;
43857;SDS011;29507;51.284;5.758;2022-08-21T00:22:13;10.85;;;7.10;;
43857;SDS011;29507;51.284;5.758;2022-08-21T00:24:39;9.90;;;7.65;;
43857;SDS011;29507;51.284;5.758;2022-08-21T00:27:05;8.05;;;6.43;;
43857;SDS011;29507;51.284;5.758;2022-08-21T00:29:30;10.80;;;8.30;;
43857;SDS011;29507;51.284;5.758;2022-08-21T00:31:56;11.82;;;7.07;;
43857;SDS011;29507;51.284;5.758;2022-08-21T00:34:21;13.52;;;8.95;;
43857;SDS011;29507;51.284;5.758;2022-08-21T00:36:47;13.60;;;7.80;;
43857;SDS011;29507;51.284;5.758;2022-08-21T00:39:13;12.27;;;7.35;;
43857;SDS011;29507;51.284;5.758;2022-08-21T00:41:39;9.25;;;7.25;;
43857;SDS011;29507;51.284;5.758;2022-08-21T00:44:07;13.23;;;7.40;;
43857;SDS011;29507;51.284;5.758;2022-08-21T00:46:34;12.90;;;7.60;;
43857;SDS011;29507;51.284;5.758;2022-08-21T00:49:00;13.65;;;7.82;;
43857;SDS011;29507;51.284;5.758;2022-08-21T00:51:29;13.55;;;8.93;;
43857;SDS011;29507;51.284;5.758;2022-08-21T00:54:01;16.25;;;8.02;;
43857;SDS011;29507;51.284;5.758;2022-08-21T00:56:27;10.48;;;7.53;;
43857;SDS011;29507;51.284;5.758;2022-08-21T00:58:54;12.85;;;8.07;;
43857;SDS011;29507;51.284;5.758;2022-08-21T01:01:22;10.60;;;7.53;;
43857;SDS011;29507;51.284;5.758;2022-08-21T01:03:48;13.10;;;7.75;;
43857;SDS011;29507;51.284;5.758;2022-08-21T01:06:14;10.35;;;7.68;;
43857;SDS011;29507;51.284;5.758;2022-08-21T01:08:40;12.15;;;8.52;;
43857;SDS011;29507;51.284;5.758;2022-08-21T01:11:06;15.02;;;8.55;;
43857;SDS011;29507;51.284;5.758;2022-08-21T01:13:34;12.68;;;8.73;;
43857;SDS011;29507;51.284;5.758;2022-08-21T01:16:02;12.45;;;8.35;;
43857;SDS011;29507;51.284;5.758;2022-08-21T01:18:33;10.88;;;8.25;;
43857;SDS011;29507;51.284;5.758;2022-08-21T01:23:36;17.10;;;10.73;;
43857;SDS011;29507;51.284;5.758;2022-08-21T01:26:04;19.23;;;9.73;;
43857;SDS011;29507;51.284;5.758;2022-08-21T01:28:31;12.88;;;8.80;;
43857;SDS011;29507;51.284;5.758;2022-08-21T01:31:01;9.82;;;6.90;;
43857;SDS011;29507;51.284;5.758;2022-08-21T01:33:29;12.35;;;9.02;;
43857;SDS011;29507;51.284;5.758;2022-08-21T01:35:55;13.02;;;8.80;;
43857;SDS011;29507;51.284;5.758;2022-08-21T01:38:21;16.48;;;9.50;;
43857;SDS011;29507;51.284;5.758;2022-08-21T01:40:47;14.85;;;9.98;;
43857;SDS011;29507;51.284;5.758;2022-08-21T01:43:12;14.52;;;9.00;;
43857;SDS011;29507;51.284;5.758;2022-08-21T01:45:38;12.65;;;8.95;;
43857;SDS011;29507;51.284;5.758;2022-08-21T01:48:03;15.63;;;9.45;;
43857;SDS011;29507;51.284;5.758;2022-08-21T01:50:29;13.23;;;8.77;;
43857;SDS011;29507;51.284;5.758;2022-08-21T01:52:55;10.30;;;7.80;;
43857;SDS011;29507;51.284;5.758;2022-08-21T01:55:21;13.52;;;7.68;;
43857;SDS011;29507;51.284;5.758;2022-08-21T01:57:48;13.82;;;8.18;;
43857;SDS011;29507;51.284;5.758;2022-08-21T02:00:14;13.88;;;8.27;;
43857;SDS011;29507;51.284;5.758;2022-08-21T02:02:42;11.88;;;8.38;;
43857;SDS011;29507;51.284;5.758;2022-08-21T02:05:09;13.60;;;7.75;;
43857;SDS011;29507;51.284;5.758;2022-08-21T02:07:38;14.55;;;7.43;;
43857;SDS011;29507;51.284;5.758;2022-08-21T02:10:07;10.68;;;8.40;;
43857;SDS011;29507;51.284;5.758;2022-08-21T02:12:36;9.77;;;7.53;;
43857;SDS011;29507;51.284;5.758;2022-08-21T02:15:02;9.93;;;7.15;;
43857;SDS011;29507;51.284;5.758;2022-08-21T02:17:36;11.88;;;7.70;;
43857;SDS011;29507;51.284;5.758;2022-08-21T02:20:07;11.70;;;7.18;;
43857;SDS011;29507;51.284;5.758;2022-08-21T02:22:34;14.85;;;9.60;;
43857;SDS011;29507;51.284;5.758;2022-08-21T02:25:00;12.32;;;8.75;;
43857;SDS011;29507;51.284;5.758;2022-08-21T02:27:25;12.23;;;8.50;;
43857;SDS011;29507;51.284;5.758;2022-08-21T02:29:51;13.18;;;9.23;;
43857;SDS011;29507;51.284;5.758;2022-08-21T02:32:16;14.75;;;8.48;;
43857;SDS011;29507;51.284;5.758;2022-08-21T02:34:42;11.73;;;7.75;;
43857;SDS011;29507;51.284;5.758;2022-08-21T02:37:08;13.75;;;8.05;;
43857;SDS011;29507;51.284;5.758;2022-08-21T02:39:33;10.52;;;7.40;;
43857;SDS011;29507;51.284;5.758;2022-08-21T02:41:59;11.13;;;7.65;;
43857;SDS011;29507;51.284;5.758;2022-08-21T02:44:25;13.98;;;7.72;;
43857;SDS011;29507;51.284;5.758;2022-08-21T02:46:50;10.98;;;7.63;;
43857;SDS011;29507;51.284;5.758;2022-08-21T02:49:16;14.70;;;8.55;;
43857;SDS011;29507;51.284;5.758;2022-08-21T02:51:41;12.90;;;7.50;;
43857;SDS011;29507;51.284;5.758;2022-08-21T02:54:07;9.68;;;7.22;;
43857;SDS011;29507;51.284;5.758;2022-08-21T02:56:33;15.60;;;7.40;;
43857;SDS011;29507;51.284;5.758;2022-08-21T02:58:58;12.05;;;7.90;;
43857;SDS011;29507;51.284;5.758;2022-08-21T03:01:24;10.30;;;7.53;;
43857;SDS011;29507;51.284;5.758;2022-08-21T03:03:49;11.18;;;8.07;;
43857;SDS011;29507;51.284;5.758;2022-08-21T03:06:15;12.38;;;8.20;;
43857;SDS011;29507;51.284;5.758;2022-08-21T03:08:43;11.00;;;7.85;;
43857;SDS011;29507;51.284;5.758;2022-08-21T03:11:10;13.57;;;7.65;;
43857;SDS011;29507;51.284;5.758;2022-08-21T03:13:36;13.25;;;8.00;;
43857;SDS011;29507;51.284;5.758;2022-08-21T03:16:02;11.13;;;7.15;;
43857;SDS011;29507;51.284;5.758;2022-08-21T03:18:27;12.30;;;8.15;;
43857;SDS011;29507;51.284;5.758;2022-08-21T03:20:53;10.80;;;7.60;;
43857;SDS011;29507;51.284;5.758;2022-08-21T03:23:19;12.90;;;8.10;;
43857;SDS011;29507;51.284;5.758;2022-08-21T03:25:45;15.43;;;8.15;;
43857;SDS011;29507;51.284;5.758;2022-08-21T03:28:14;13.65;;;7.07;;
43857;SDS011;29507;51.284;5.758;2022-08-21T03:30:42;11.68;;;6.78;;
43857;SDS011;29507;51.284;5.758;2022-08-21T03:33:09;15.52;;;6.72;;
43857;SDS011;29507;51.284;5.758;2022-08-21T03:35:36;13.10;;;7.32;;
43857;SDS011;29507;51.284;5.758;2022-08-21T03:38:01;11.82;;;6.63;;
43857;SDS011;29507;51.284;5.758;2022-08-21T03:40:28;10.93;;;5.88;;
43857;SDS011;29507;51.284;5.758;2022-08-21T03:42:54;11.48;;;5.75;;
43857;SDS011;29507;51.284;5.758;2022-08-21T03:45:19;14.38;;;5.68;;
43857;SDS011;29507;51.284;5.758;2022-08-21T03:47:56;10.00;;;5.60;;
43857;SDS011;29507;51.284;5.758;2022-08-21T03:50:24;9.10;;;4.85;;
43857;SDS011;29507;51.284;5.758;2022-08-21T03:52:53;14.63;;;5.53;;
43857;SDS011;29507;51.284;5.758;2022-08-21T03:55:19;9.73;;;4.60;;
43857;SDS011;29507;51.284;5.758;2022-08-21T03:57:45;12.27;;;5.25;;
43857;SDS011;29507;51.284;5.758;2022-08-21T04:00:11;11.40;;;6.15;;
43857;SDS011;29507;51.284;5.758;2022-08-21T04:02:39;9.05;;;4.80;;
43857;SDS011;29507;51.284;5.758;2022-08-21T04:05:05;10.80;;;4.90;;
43857;SDS011;29507;51.284;5.758;2022-08-21T04:07:31;13.05;;;5.00;;
43857;SDS011;29507;51.284;5.758;2022-08-21T04:09:57;10.10;;;5.30;;
43857;SDS011;29507;51.284;5.758;2022-08-21T04:12:22;8.98;;;5.35;;
43857;SDS011;29507;51.284;5.758;2022-08-21T04:14:48;9.77;;;5.60;;
43857;SDS011;29507;51.284;5.758;2022-08-21T04:17:16;9.50;;;6.10;;
43857;SDS011;29507;51.284;5.758;2022-08-21T04:19:42;12.73;;;6.22;;
43857;SDS011;29507;51.284;5.758;2022-08-21T04:22:07;11.73;;;6.53;;
43857;SDS011;29507;51.284;5.758;2022-08-21T04:24:33;11.25;;;6.82;;
43857;SDS011;29507;51.284;5.758;2022-08-21T04:26:59;13.93;;;6.35;;
43857;SDS011;29507;51.284;5.758;2022-08-21T04:29:25;10.38;;;6.25;;
43857;SDS011;29507;51.284;5.758;2022-08-21T04:31:50;11.18;;;6.45;;
43857;SDS011;29507;51.284;5.758;2022-08-21T04:34:17;10.18;;;5.55;;
43857;SDS011;29507;51.284;5.758;2022-08-21T04:36:43;10.35;;;6.18;;
43857;SDS011;29507;51.284;5.758;2022-08-21T04:39:08;14.15;;;6.72;;
43857;SDS011;29507;51.284;5.758;2022-08-21T04:41:34;14.57;;;6.15;;
43857;SDS011;29507;51.284;5.758;2022-08-21T04:44:01;9.05;;;5.30;;
43857;SDS011;29507;51.284;5.758;2022-08-21T04:46:27;12.02;;;6.25;;
43857;SDS011;29507;51.284;5.758;2022-08-21T04:48:53;12.25;;;6.18;;
43857;SDS011;29507;51.284;5.758;2022-08-21T04:51:23;8.65;;;5.78;;
43857;SDS011;29507;51.284;5.758;2022-08-21T04:53:53;12.57;;;6.50;;
43857;SDS011;29507;51.284;5.758;2022-08-21T04:56:31;12.13;;;5.72;;
43857;SDS011;29507;51.284;5.758;2022-08-21T04:59:00;10.00;;;5.57;;
43857;SDS011;29507;51.284;5.758;2022-08-21T05:01:30;10.23;;;6.00;;
43857;SDS011;29507;51.284;5.758;2022-08-21T05:03:59;13.55;;;6.40;;
43857;SDS011;29507;51.284;5.758;2022-08-21T05:06:28;15.73;;;5.68;;
43857;SDS011;29507;51.284;5.758;2022-08-21T05:08:54;8.73;;;5.18;;
43857;SDS011;29507;51.284;5.758;2022-08-21T05:11:21;13.45;;;5.60;;
43857;SDS011;29507;51.284;5.758;2022-08-21T05:13:47;11.13;;;4.88;;
43857;SDS011;29507;51.284;5.758;2022-08-21T05:16:14;7.78;;;5.25;;
43857;SDS011;29507;51.284;5.758;2022-08-21T05:18:40;10.63;;;5.47;;
43857;SDS011;29507;51.284;5.758;2022-08-21T05:21:07;10.23;;;4.82;;
43857;SDS011;29507;51.284;5.758;2022-08-21T05:23:34;14.77;;;5.93;;
43857;SDS011;29507;51.284;5.758;2022-08-21T05:26:00;10.60;;;5.15;;
43857;SDS011;29507;51.284;5.758;2022-08-21T05:28:26;10.07;;;4.70;;
43857;SDS011;29507;51.284;5.758;2022-08-21T05:30:51;11.82;;;4.60;;
43857;SDS011;29507;51.284;5.758;2022-08-21T05:33:17;15.27;;;5.00;;
43857;SDS011;29507;51.284;5.758;2022-08-21T05:35:42;8.77;;;5.00;;
43857;SDS011;29507;51.284;5.758;2022-08-21T05:38:08;11.07;;;4.70;;
43857;SDS011;29507;51.284;5.758;2022-08-21T05:40:34;12.15;;;4.63;;
43857;SDS011;29507;51.284;5.758;2022-08-21T05:42:59;11.98;;;4.10;;
43857;SDS011;29507;51.284;5.758;2022-08-21T05:45:26;13.30;;;4.35;;
43857;SDS011;29507;51.284;5.758;2022-08-21T05:47:54;6.70;;;3.90;;
43857;SDS011;29507;51.284;5.758;2022-08-21T05:50:20;8.50;;;3.70;;
43857;SDS011;29507;51.284;5.758;2022-08-21T05:52:45;8.80;;;4.18;;
43857;SDS011;29507;51.284;5.758;2022-08-21T05:55:11;6.47;;;3.80;;
43857;SDS011;29507;51.284;5.758;2022-08-21T05:57:37;8.10;;;3.63;;
43857;SDS011;29507;51.284;5.758;2022-08-21T06:00:06;7.00;;;3.83;;
43857;SDS011;29507;51.284;5.758;2022-08-21T06:02:37;9.57;;;2.85;;
43857;SDS011;29507;51.284;5.758;2022-08-21T06:05:03;8.27;;;3.85;;
43857;SDS011;29507;51.284;5.758;2022-08-21T06:07:29;7.43;;;3.22;;
43857;SDS011;29507;51.284;5.758;2022-08-21T06:09:54;9.32;;;3.38;;
43857;SDS011;29507;51.284;5.758;2022-08-21T06:12:20;12.35;;;3.03;;
43857;SDS011;29507;51.284;5.758;2022-08-21T06:14:46;8.30;;;2.92;;
43857;SDS011;29507;51.284;5.758;2022-08-21T06:17:12;7.97;;;2.67;;
43857;SDS011;29507;51.284;5.758;2022-08-21T06:19:38;5.00;;;2.35;;
43857;SDS011;29507;51.284;5.758;2022-08-21T06:22:04;12.65;;;2.88;;
43857;SDS011;29507;51.284;5.758;2022-08-21T06:24:30;8.60;;;2.60;;
43857;SDS011;29507;51.284;5.758;2022-08-21T06:26:56;5.38;;;2.92;;
43857;SDS011;29507;51.284;5.758;2022-08-21T06:29:22;8.63;;;2.70;;
43857;SDS011;29507;51.284;5.758;2022-08-21T06:31:49;7.68;;;2.30;;
43857;SDS011;29507;51.284;5.758;2022-08-21T06:34:16;8.25;;;2.55;;
43857;SDS011;29507;51.284;5.758;2022-08-21T06:36:43;7.65;;;2.30;;
43857;SDS011;29507;51.284;5.758;2022-08-21T06:39:08;8.93;;;3.70;;
43857;SDS011;29507;51.284;5.758;2022-08-21T06:41:34;6.88;;;2.53;;
43857;SDS011;29507;51.284;5.758;2022-08-21T06:44:00;4.25;;;1.75;;
43857;SDS011;29507;51.284;5.758;2022-08-21T06:46:27;7.93;;;2.45;;
43857;SDS011;29507;51.284;5.758;2022-08-21T06:48:54;6.00;;;2.07;;
43857;SDS011;29507;51.284;5.758;2022-08-21T06:51:21;7.63;;;2.28;;
43857;SDS011;29507;51.284;5.758;2022-08-21T06:53:47;8.52;;;2.10;;
43857;SDS011;29507;51.284;5.758;2022-08-21T06:56:13;5.95;;;2.38;;
43857;SDS011;29507;51.284;5.758;2022-08-21T06:58:38;8.82;;;2.83;;
43857;SDS011;29507;51.284;5.758;2022-08-21T07:01:04;6.15;;;1.60;;
43857;SDS011;29507;51.284;5.758;2022-08-21T07:03:39;5.75;;;1.50;;
43857;SDS011;29507;51.284;5.758;2022-08-21T07:06:07;9.25;;;1.92;;
43857;SDS011;29507;51.284;5.758;2022-08-21T07:08:34;5.65;;;1.70;;
43857;SDS011;29507;51.284;5.758;2022-08-21T07:11:01;5.95;;;1.30;;
43857;SDS011;29507;51.284;5.758;2022-08-21T07:13:31;5.00;;;1.50;;
43857;SDS011;29507;51.284;5.758;2022-08-21T07:15:56;6.60;;;1.23;;
43857;SDS011;29507;51.284;5.758;2022-08-21T07:18:22;5.93;;;1.52;;
43857;SDS011;29507;51.284;5.758;2022-08-21T07:20:47;6.72;;;1.67;;
43857;SDS011;29507;51.284;5.758;2022-08-21T07:23:32;5.57;;;1.38;;
43857;SDS011;29507;51.284;5.758;2022-08-21T07:26:01;5.85;;;1.58;;
43857;SDS011;29507;51.284;5.758;2022-08-21T07:28:28;8.55;;;1.95;;
43857;SDS011;29507;51.284;5.758;2022-08-21T07:30:55;8.60;;;1.83;;
43857;SDS011;29507;51.284;5.758;2022-08-21T07:33:24;7.55;;;1.73;;
43857;SDS011;29507;51.284;5.758;2022-08-21T07:35:51;7.18;;;2.22;;
43857;SDS011;29507;51.284;5.758;2022-08-21T07:38:17;9.65;;;2.25;;
43857;SDS011;29507;51.284;5.758;2022-08-21T07:40:44;7.15;;;2.17;;
43857;SDS011;29507;51.284;5.758;2022-08-21T07:43:10;8.77;;;1.70;;
43857;SDS011;29507;51.284;5.758;2022-08-21T07:45:36;8.38;;;1.58;;
43857;SDS011;29507;51.284;5.758;2022-08-21T07:48:02;6.50;;;1.90;;
43857;SDS011;29507;51.284;5.758;2022-08-21T07:50:29;5.45;;;1.77;;
43857;SDS011;29507;51.284;5.758;2022-08-21T07:52:55;10.15;;;2.53;;
43857;SDS011;29507;51.284;5.758;2022-08-21T07:55:20;5.25;;;1.60;;
43857;SDS011;29507;51.284;5.758;2022-08-21T07:57:47;5.30;;;1.77;;
43857;SDS011;29507;51.284;5.758;2022-08-21T08:00:14;6.88;;;1.73;;
43857;SDS011;29507;51.284;5.758;2022-08-21T08:02:46;8.20;;;2.17;;
43857;SDS011;29507;51.284;5.758;2022-08-21T08:05:15;4.45;;;1.52;;
43857;SDS011;29507;51.284;5.758;2022-08-21T08:07:42;5.95;;;1.70;;
43857;SDS011;29507;51.284;5.758;2022-08-21T08:10:07;8.15;;;1.63;;
43857;SDS011;29507;51.284;5.758;2022-08-21T08:12:36;9.18;;;1.73;;
43857;SDS011;29507;51.284;5.758;2022-08-21T08:15:05;8.35;;;2.05;;
43857;SDS011;29507;51.284;5.758;2022-08-21T08:17:32;6.27;;;1.83;;
43857;SDS011;29507;51.284;5.758;2022-08-21T08:19:58;12.02;;;2.05;;
43857;SDS011;29507;51.284;5.758;2022-08-21T08:22:25;7.28;;;1.60;;
43857;SDS011;29507;51.284;5.758;2022-08-21T08:24:52;6.35;;;1.95;;
43857;SDS011;29507;51.284;5.758;2022-08-21T08:27:18;5.57;;;1.40;;
43857;SDS011;29507;51.284;5.758;2022-08-21T08:29:45;5.03;;;1.40;;
43857;SDS011;29507;51.284;5.758;2022-08-21T08:32:11;9.38;;;2.45;;
43857;SDS011;29507;51.284;5.758;2022-08-21T08:34:37;5.18;;;1.35;;
43857;SDS011;29507;51.284;5.758;2022-08-21T08:37:04;8.82;;;1.77;;
43857;SDS011;29507;51.284;5.758;2022-08-21T08:39:32;5.75;;;1.55;;
43857;SDS011;29507;51.284;5.758;2022-08-21T08:44:43;6.55;;;1.30;;
43857;SDS011;29507;51.284;5.758;2022-08-21T08:47:12;8.15;;;1.30;;
43857;SDS011;29507;51.284;5.758;2022-08-21T08:49:48;6.85;;;1.27;;
43857;SDS011;29507;51.284;5.758;2022-08-21T08:52:30;7.07;;;2.00;;
43857;SDS011;29507;51.284;5.758;2022-08-21T08:55:04;4.80;;;1.17;;
43857;SDS011;29507;51.284;5.758;2022-08-21T08:57:33;8.52;;;1.63;;
43857;SDS011;29507;51.284;5.758;2022-08-21T09:00:01;7.57;;;1.90;;
43857;SDS011;29507;51.284;5.758;2022-08-21T09:02:34;4.85;;;1.27;;
43857;SDS011;29507;51.284;5.758;2022-08-21T09:05:01;6.40;;;1.70;;
43857;SDS011;29507;51.284;5.758;2022-08-21T09:07:34;7.47;;;1.52;;
43857;SDS011;29507;51.284;5.758;2022-08-21T09:12:50;5.07;;;1.50;;
43857;SDS011;29507;51.284;5.758;2022-08-21T09:21:17;7.72;;;1.10;;
43857;SDS011;29507;51.284;5.758;2022-08-21T09:24:01;6.70;;;1.75;;
43857;SDS011;29507;51.284;5.758;2022-08-21T09:29:37;8.18;;;1.70;;
43857;SDS011;29507;51.284;5.758;2022-08-21T09:32:18;6.38;;;1.20;;
43857;SDS011;29507;51.284;5.758;2022-08-21T09:35:29;4.57;;;1.20;;
43857;SDS011;29507;51.284;5.758;2022-08-21T09:37:47;3.90;;;1.10;;
43857;SDS011;29507;51.284;5.758;2022-08-21T09:42:56;4.22;;;1.08;;
43857;SDS011;29507;51.284;5.758;2022-08-21T09:45:24;5.40;;;1.52;;
43857;SDS011;29507;51.284;5.758;2022-08-21T09:47:50;4.38;;;1.35;;
43857;SDS011;29507;51.284;5.758;2022-08-21T09:50:19;5.70;;;1.42;;
43857;SDS011;29507;51.284;5.758;2022-08-21T09:52:58;3.42;;;1.10;;
43857;SDS011;29507;51.284;5.758;2022-08-21T09:55:30;7.30;;;1.40;;
43857;SDS011;29507;51.284;5.758;2022-08-21T09:58:17;5.45;;;1.27;;
43857;SDS011;29507;51.284;5.758;2022-08-21T10:00:44;4.55;;;1.42;;
43857;SDS011;29507;51.284;5.758;2022-08-21T10:05:49;5.40;;;1.30;;
43857;SDS011;29507;51.284;5.758;2022-08-21T10:08:24;5.90;;;1.30;;
43857;SDS011;29507;51.284;5.758;2022-08-21T10:10:54;6.30;;;1.27;;
43857;SDS011;29507;51.284;5.758;2022-08-21T10:13:42;5.90;;;1.42;;
43857;SDS011;29507;51.284;5.758;2022-08-21T10:30:41;7.55;;;1.17;;
43857;SDS011;29507;51.284;5.758;2022-08-21T10:47:06;3.70;;;1.13;;
43857;SDS011;29507;51.284;5.758;2022-08-21T10:49:53;5.68;;;1.40;;
43857;SDS011;29507;51.284;5.758;2022-08-21T10:55:10;6.30;;;1.45;;
43857;SDS011;29507;51.284;5.758;2022-08-21T10:57:47;3.88;;;0.80;;
43857;SDS011;29507;51.284;5.758;2022-08-21T11:00:33;3.95;;;0.93;;
43857;SDS011;29507;51.284;5.758;2022-08-21T11:03:14;3.83;;;1.10;;
43857;SDS011;29507;51.284;5.758;2022-08-21T11:05:54;3.35;;;0.90;;
43857;SDS011;29507;51.284;5.758;2022-08-21T11:08:29;4.20;;;0.88;;
43857;SDS011;29507;51.284;5.758;2022-08-21T11:11:07;3.67;;;0.68;;
43857;SDS011;29507;51.284;5.758;2022-08-21T11:13:41;6.15;;;1.00;;
43857;SDS011;29507;51.284;5.758;2022-08-21T11:19:15;5.18;;;1.40;;
43857;SDS011;29507;51.284;5.758;2022-08-21T11:22:06;4.23;;;1.07;;
43857;SDS011;29507;51.284;5.758;2022-08-21T11:27:24;6.85;;;1.00;;
43857;SDS011;29507;51.284;5.758;2022-08-21T11:30:12;3.28;;;0.70;;
43857;SDS011;29507;51.284;5.758;2022-08-21T11:35:13;4.97;;;1.00;;
43857;SDS011;29507;51.284;5.758;2022-08-21T11:38:07;4.18;;;1.20;;
43857;SDS011;29507;51.284;5.758;2022-08-21T11:40:55;7.63;;;1.30;;
43857;SDS011;29507;51.284;5.758;2022-08-21T11:43:30;3.22;;;0.77;;
43857;SDS011;29507;51.284;5.758;2022-08-21T11:51:38;3.50;;;0.90;;
43857;SDS011;29507;51.284;5.758;2022-08-21T11:57:05;4.60;;;0.87;;
43857;SDS011;29507;51.284;5.758;2022-08-21T12:00:06;7.50;;;1.42;;
43857;SDS011;29507;51.284;5.758;2022-08-21T12:02:46;9.20;;;1.00;;
43857;SDS011;29507;51.284;5.758;2022-08-21T12:05:23;3.97;;;1.10;;
43857;SDS011;29507;51.284;5.758;2022-08-21T12:08:01;5.13;;;1.13;;
43857;SDS011;29507;51.284;5.758;2022-08-21T12:10:36;3.22;;;0.90;;
43857;SDS011;29507;51.284;5.758;2022-08-21T12:13:06;3.78;;;1.08;;
43857;SDS011;29507;51.284;5.758;2022-08-21T12:15:52;6.32;;;0.90;;
43857;SDS011;29507;51.284;5.758;2022-08-21T12:18:28;4.28;;;0.90;;
43857;SDS011;29507;51.284;5.758;2022-08-21T12:21:00;3.60;;;0.77;;
43857;SDS011;29507;51.284;5.758;2022-08-21T12:23:31;4.97;;;1.10;;
43857;SDS011;29507;51.284;5.758;2022-08-21T12:26:28;5.22;;;1.10;;
43857;SDS011;29507;51.284;5.758;2022-08-21T12:29:12;5.18;;;1.25;;
43857;SDS011;29507;51.284;5.758;2022-08-21T12:31:53;3.20;;;0.90;;
43857;SDS011;29507;51.284;5.758;2022-08-21T12:34:48;3.60;;;1.10;;
43857;SDS011;29507;51.284;5.758;2022-08-21T12:40:04;3.50;;;0.88;;
43857;SDS011;29507;51.284;5.758;2022-08-21T12:42:41;4.20;;;0.82;;
43857;SDS011;29507;51.284;5.758;2022-08-21T12:45:17;5.60;;;0.80;;
43857;SDS011;29507;51.284;5.758;2022-08-21T12:47:47;4.20;;;0.85;;
43857;SDS011;29507;51.284;5.758;2022-08-21T12:50:26;4.63;;;1.05;;
43857;SDS011;29507;51.284;5.758;2022-08-21T12:55:40;3.95;;;0.82;;
43857;SDS011;29507;51.284;5.758;2022-08-21T12:58:16;4.60;;;1.13;;
43857;SDS011;29507;51.284;5.758;2022-08-21T13:01:05;4.78;;;1.15;;
43857;SDS011;29507;51.284;5.758;2022-08-21T13:03:37;4.40;;;1.10;;
43857;SDS011;29507;51.284;5.758;2022-08-21T13:06:04;5.05;;;1.02;;
43857;SDS011;29507;51.284;5.758;2022-08-21T13:08:30;6.28;;;1.48;;
43857;SDS011;29507;51.284;5.758;2022-08-21T13:11:00;5.32;;;0.90;;
43857;SDS011;29507;51.284;5.758;2022-08-21T13:13:29;6.60;;;1.40;;
43857;SDS011;29507;51.284;5.758;2022-08-21T13:15:56;6.63;;;1.55;;
43857;SDS011;29507;51.284;5.758;2022-08-21T13:18:25;3.10;;;1.00;;
43857;SDS011;29507;51.284;5.758;2022-08-21T13:21:02;6.35;;;0.90;;
43857;SDS011;29507;51.284;5.758;2022-08-21T13:23:34;3.42;;;0.90;;
43857;SDS011;29507;51.284;5.758;2022-08-21T13:26:00;2.80;;;0.98;;
43857;SDS011;29507;51.284;5.758;2022-08-21T13:28:36;3.30;;;0.82;;
43857;SDS011;29507;51.284;5.758;2022-08-21T13:31:05;3.20;;;0.98;;
43857;SDS011;29507;51.284;5.758;2022-08-21T13:33:35;2.42;;;0.80;;
43857;SDS011;29507;51.284;5.758;2022-08-21T13:36:05;6.22;;;1.15;;
43857;SDS011;29507;51.284;5.758;2022-08-21T13:38:35;2.42;;;0.63;;
43857;SDS011;29507;51.284;5.758;2022-08-21T13:43:59;2.65;;;0.95;;
43857;SDS011;29507;51.284;5.758;2022-08-21T13:46:32;5.30;;;1.20;;
43857;SDS011;29507;51.284;5.758;2022-08-21T13:49:00;3.83;;;0.95;;
43857;SDS011;29507;51.284;5.758;2022-08-21T13:51:30;8.35;;;1.10;;
43857;SDS011;29507;51.284;5.758;2022-08-21T13:53:57;3.13;;;1.00;;
43857;SDS011;29507;51.284;5.758;2022-08-21T13:58:58;7.38;;;1.08;;
43857;SDS011;29507;51.284;5.758;2022-08-21T14:04:07;5.50;;;1.00;;
43857;SDS011;29507;51.284;5.758;2022-08-21T14:06:44;8.93;;;1.33;;
43857;SDS011;29507;51.284;5.758;2022-08-21T14:09:11;7.72;;;1.10;;
43857;SDS011;29507;51.284;5.758;2022-08-21T14:11:51;3.30;;;1.00;;
43857;SDS011;29507;51.284;5.758;2022-08-21T14:14:23;4.90;;;1.30;;
43857;SDS011;29507;51.284;5.758;2022-08-21T14:16:54;5.05;;;1.20;;
43857;SDS011;29507;51.284;5.758;2022-08-21T14:19:44;4.15;;;0.88;;
43857;SDS011;29507;51.284;5.758;2022-08-21T14:25:08;5.53;;;0.95;;
43857;SDS011;29507;51.284;5.758;2022-08-21T14:27:43;5.25;;;1.08;;
43857;SDS011;29507;51.284;5.758;2022-08-21T14:30:21;3.88;;;1.27;;
43857;SDS011;29507;51.284;5.758;2022-08-21T14:32:55;6.28;;;1.45;;
43857;SDS011;29507;51.284;5.758;2022-08-21T14:35:21;5.65;;;1.20;;
43857;SDS011;29507;51.284;5.758;2022-08-21T14:37:48;3.25;;;0.80;;
43857;SDS011;29507;51.284;5.758;2022-08-21T14:40:17;6.97;;;1.60;;
43857;SDS011;29507;51.284;5.758;2022-08-21T14:42:44;3.95;;;1.20;;
43857;SDS011;29507;51.284;5.758;2022-08-21T14:45:14;4.80;;;1.15;;
43857;SDS011;29507;51.284;5.758;2022-08-21T14:47:53;6.25;;;1.20;;
43857;SDS011;29507;51.284;5.758;2022-08-21T14:50:20;5.72;;;1.55;;
43857;SDS011;29507;51.284;5.758;2022-08-21T14:52:46;4.55;;;1.00;;
43857;SDS011;29507;51.284;5.758;2022-08-21T14:55:12;6.65;;;1.17;;
43857;SDS011;29507;51.284;5.758;2022-08-21T14:57:39;3.97;;;1.05;;
43857;SDS011;29507;51.284;5.758;2022-08-21T15:00:08;6.38;;;1.23;;
43857;SDS011;29507;51.284;5.758;2022-08-21T15:02:35;4.50;;;1.00;;
43857;SDS011;29507;51.284;5.758;2022-08-21T15:05:01;5.70;;;1.50;;
43857;SDS011;29507;51.284;5.758;2022-08-21T15:07:27;4.05;;;1.10;;
43857;SDS011;29507;51.284;5.758;2022-08-21T15:09:52;3.53;;;1.10;;
43857;SDS011;29507;51.284;5.758;2022-08-21T15:12:18;5.68;;;1.42;;
43857;SDS011;29507;51.284;5.758;2022-08-21T15:14:44;3.55;;;0.90;;
43857;SDS011;29507;51.284;5.758;2022-08-21T15:17:10;6.72;;;1.45;;
43857;SDS011;29507;51.284;5.758;2022-08-21T15:19:37;3.90;;;1.17;;
43857;SDS011;29507;51.284;5.758;2022-08-21T15:22:03;7.50;;;1.55;;
43857;SDS011;29507;51.284;5.758;2022-08-21T15:24:29;4.05;;;1.33;;
43857;SDS011;29507;51.284;5.758;2022-08-21T15:26:55;6.53;;;1.27;;
43857;SDS011;29507;51.284;5.758;2022-08-21T15:29:21;5.18;;;1.20;;
43857;SDS011;29507;51.284;5.758;2022-08-21T15:31:54;5.10;;;1.10;;
43857;SDS011;29507;51.284;5.758;2022-08-21T15:34:22;5.20;;;1.20;;
43857;SDS011;29507;51.284;5.758;2022-08-21T15:36:50;3.40;;;1.50;;
43857;SDS011;29507;51.284;5.758;2022-08-21T15:39:15;6.00;;;1.65;;
43857;SDS011;29507;51.284;5.758;2022-08-21T15:41:42;5.07;;;1.92;;
43857;SDS011;29507;51.284;5.758;2022-08-21T15:44:08;5.10;;;1.27;;
43857;SDS011;29507;51.284;5.758;2022-08-21T15:46:36;8.27;;;2.00;;
43857;SDS011;29507;51.284;5.758;2022-08-21T15:49:03;5.95;;;1.20;;
43857;SDS011;29507;51.284;5.758;2022-08-21T15:51:29;8.43;;;1.95;;
43857;SDS011;29507;51.284;5.758;2022-08-21T15:53:54;8.38;;;2.15;;
43857;SDS011;29507;51.284;5.758;2022-08-21T15:56:22;5.63;;;1.60;;
43857;SDS011;29507;51.284;5.758;2022-08-21T15:58:49;7.07;;;1.80;;
43857;SDS011;29507;51.284;5.758;2022-08-21T16:01:17;5.18;;;1.50;;
43857;SDS011;29507;51.284;5.758;2022-08-21T16:03:43;5.72;;;1.30;;
43857;SDS011;29507;51.284;5.758;2022-08-21T16:06:12;4.10;;;1.40;;
43857;SDS011;29507;51.284;5.758;2022-08-21T16:08:38;4.82;;;1.33;;
43857;SDS011;29507;51.284;5.758;2022-08-21T16:11:04;5.63;;;1.30;;
43857;SDS011;29507;51.284;5.758;2022-08-21T16:13:32;5.35;;;1.42;;
43857;SDS011;29507;51.284;5.758;2022-08-21T16:16:02;6.70;;;1.83;;
43857;SDS011;29507;51.284;5.758;2022-08-21T16:18:28;7.18;;;1.35;;
43857;SDS011;29507;51.284;5.758;2022-08-21T16:20:54;6.57;;;1.67;;